createdAt,value
2017-12-16T00:01:11.100Z,99.99
2017-12-16T00:02:11.012Z,99.99
2017-12-16T00:04:04.262Z,99.99
2017-12-16T00:05:04.191Z,99.99
2017-12-16T00:06:57.525Z,99.99
2017-12-16T00:07:57.435Z,99.99
2017-12-16T00:09:50.697Z,99.99
2017-12-16T00:10:50.606Z,99.99
2017-12-16T00:12:43.855Z,99.99
2017-12-16T00:13:43.785Z,99.99
2017-12-16T00:15:37.054Z,99.99
2017-12-16T00:16:36.962Z,99.99
2017-12-16T00:18:30.210Z,99.99
2017-12-16T00:19:30.147Z,99.99
2017-12-16T00:21:23.411Z,99.99
2017-12-16T00:22:23.320Z,99.99
2017-12-16T00:24:16.571Z,99.99
2017-12-16T00:25:16.504Z,99.99
2017-12-16T00:27:09.770Z,99.99
2017-12-16T00:28:09.675Z,99.99
2017-12-16T00:30:02.935Z,99.99
2017-12-16T00:31:02.844Z,99.99
2017-12-16T00:32:56.098Z,99.99
2017-12-16T00:33:56.022Z,99.99
2017-12-16T00:35:49.300Z,99.99
2017-12-16T00:36:49.203Z,99.99
2017-12-16T00:38:42.512Z,99.99
2017-12-16T00:39:42.428Z,99.99
2017-12-16T00:41:35.700Z,99.99
2017-12-16T00:42:35.609Z,99.99
2017-12-16T00:44:28.863Z,99.99
2017-12-16T00:45:28.788Z,99.99
2017-12-16T00:47:22.058Z,99.99
2017-12-16T00:48:21.967Z,99.99
2017-12-16T00:50:15.238Z,99.99
2017-12-16T00:51:15.150Z,99.99
2017-12-16T00:53:08.511Z,99.99
2017-12-16T00:54:08.436Z,99.99
2017-12-16T00:56:01.705Z,99.99
2017-12-16T00:57:01.613Z,99.99
2017-12-16T00:58:54.878Z,99.99
2017-12-16T00:59:54.802Z,99.99
2017-12-16T01:01:48.068Z,99.99
2017-12-16T01:02:47.980Z,99.99
2017-12-16T01:04:41.231Z,99.99
2017-12-16T01:05:41.159Z,99.99
2017-12-16T01:07:34.522Z,99.99
2017-12-16T01:08:34.437Z,99.99
2017-12-16T01:10:27.702Z,99.99
2017-12-16T01:11:27.609Z,99.99
2017-12-16T01:13:20.868Z,99.99
2017-12-16T01:14:20.791Z,99.99
2017-12-16T01:16:14.061Z,99.99
2017-12-16T01:17:13.972Z,99.99
2017-12-16T01:19:07.222Z,99.99
2017-12-16T01:20:07.150Z,99.99
2017-12-16T01:22:00.521Z,99.99
2017-12-16T01:23:00.429Z,99.99
2017-12-16T01:24:53.679Z,99.99
2017-12-16T01:25:53.608Z,99.99
2017-12-16T01:27:46.884Z,99.99
2017-12-16T01:28:46.786Z,99.99
2017-12-16T01:30:40.059Z,99.99
2017-12-16T01:31:39.968Z,99.99
2017-12-16T01:33:33.216Z,99.99
2017-12-16T01:34:33.152Z,99.99
2017-12-16T01:36:26.534Z,99.99
2017-12-16T01:37:26.435Z,99.99
2017-12-16T01:39:19.685Z,99.99
2017-12-16T01:40:19.603Z,99.99
2017-12-16T01:42:12.876Z,99.99
2017-12-16T01:43:12.786Z,99.99
2017-12-16T01:45:06.039Z,99.99
2017-12-16T01:46:05.967Z,99.99
2017-12-16T01:47:59.235Z,99.99
2017-12-16T01:48:59.144Z,99.99
2017-12-16T01:50:52.415Z,99.99
2017-12-16T01:51:52.324Z,99.99
2017-12-16T01:53:45.585Z,99.99
2017-12-16T01:54:45.509Z,99.99
2017-12-16T01:56:38.776Z,99.99
2017-12-16T01:57:38.685Z,99.99
2017-12-16T01:59:31.935Z,99.99
2017-12-16T02:00:31.855Z,99.99
2017-12-16T02:02:25.128Z,99.99
2017-12-16T02:03:25.036Z,99.99
2017-12-16T02:05:18.508Z,99.99
2017-12-16T02:06:18.438Z,99.99
2017-12-16T02:08:11.700Z,99.99
2017-12-16T02:09:11.609Z,99.99
2017-12-16T02:11:04.888Z,99.99
2017-12-16T02:12:04.793Z,99.99
2017-12-16T02:13:58.045Z,99.99
2017-12-16T02:14:57.971Z,99.99
2017-12-16T02:16:51.249Z,99.99
2017-12-16T02:17:51.158Z,99.99
2017-12-16T02:19:44.508Z,99.99
2017-12-16T02:20:44.440Z,99.99
2017-12-16T02:22:37.704Z,99.99
2017-12-16T02:23:37.615Z,99.99
2017-12-16T02:25:30.869Z,99.99
2017-12-16T02:26:30.795Z,99.99
2017-12-16T02:28:24.068Z,99.99
2017-12-16T02:29:23.989Z,99.99
2017-12-16T02:31:17.246Z,99.99
2017-12-16T02:32:17.152Z,99.99
2017-12-16T02:34:10.503Z,99.99
2017-12-16T02:35:10.431Z,99.99
2017-12-16T02:37:03.708Z,99.99
2017-12-16T02:38:03.610Z,99.99
2017-12-16T02:39:56.863Z,99.99
2017-12-16T02:40:56.791Z,99.99
2017-12-16T02:42:50.061Z,99.99
2017-12-16T02:43:49.978Z,99.99
2017-12-16T02:45:43.221Z,99.99
2017-12-16T02:46:43.147Z,99.99
2017-12-16T02:48:36.419Z,99.99
2017-12-16T02:49:36.328Z,99.99
2017-12-16T02:51:29.596Z,99.99
2017-12-16T02:52:29.504Z,99.99
2017-12-16T02:54:22.759Z,99.99
2017-12-16T02:55:22.686Z,99.99
2017-12-16T02:57:15.463Z,99.99
2017-12-16T02:58:15.373Z,99.99
2017-12-16T03:00:08.626Z,99.99
2017-12-16T03:01:08.557Z,99.99
2017-12-16T03:03:01.821Z,99.99
2017-12-16T03:04:01.732Z,99.99
2017-12-16T03:05:54.982Z,99.99
2017-12-16T03:06:54.910Z,99.99
2017-12-16T03:08:48.182Z,99.99
2017-12-16T03:09:48.121Z,99.99
2017-12-16T03:11:41.527Z,99.99
2017-12-16T03:12:41.435Z,99.99
2017-12-16T03:14:34.717Z,99.99
2017-12-16T03:15:34.642Z,99.99
2017-12-16T03:17:27.912Z,99.99
2017-12-16T03:18:27.820Z,99.99
2017-12-16T03:20:21.072Z,99.99
2017-12-16T03:21:20.999Z,99.99
2017-12-16T03:23:14.270Z,99.99
2017-12-16T03:24:14.179Z,99.99
2017-12-16T03:26:07.505Z,99.99
2017-12-16T03:27:07.438Z,99.99
2017-12-16T03:29:00.704Z,99.99
2017-12-16T03:30:00.612Z,99.99
2017-12-16T03:31:53.882Z,99.99
2017-12-16T03:32:53.790Z,99.99
2017-12-16T03:34:47.061Z,99.99
2017-12-16T03:35:46.976Z,99.99
2017-12-16T03:37:40.245Z,99.99
2017-12-16T03:38:40.157Z,99.99
2017-12-16T03:40:33.518Z,99.99
2017-12-16T03:41:33.438Z,99.99
2017-12-16T03:43:26.709Z,99.99
2017-12-16T03:44:26.620Z,99.99
2017-12-16T03:46:19.869Z,99.99
2017-12-16T03:47:19.795Z,99.99
2017-12-16T03:49:13.098Z,99.99
2017-12-16T03:50:13.005Z,99.99
2017-12-16T03:52:06.275Z,99.99
2017-12-16T03:53:06.184Z,99.99
2017-12-16T03:54:59.436Z,99.99
2017-12-16T03:55:59.364Z,99.99
2017-12-16T03:57:52.626Z,99.99
2017-12-16T03:58:52.541Z,99.99
2017-12-16T04:00:45.792Z,99.99
2017-12-16T04:01:45.720Z,99.99
2017-12-16T04:03:38.977Z,99.99
2017-12-16T04:04:38.885Z,99.99
2017-12-16T04:06:32.131Z,99.99
2017-12-16T04:07:32.053Z,99.99
2017-12-16T04:09:25.316Z,99.99
2017-12-16T04:10:25.223Z,99.99
2017-12-16T04:12:18.525Z,99.99
2017-12-16T04:13:18.436Z,99.99
2017-12-16T04:15:11.693Z,99.99
2017-12-16T04:16:11.617Z,99.99
2017-12-16T04:18:04.890Z,99.99
2017-12-16T04:19:04.794Z,99.99
2017-12-16T04:20:58.046Z,99.99
2017-12-16T04:21:57.974Z,99.99
2017-12-16T04:23:51.262Z,99.99
2017-12-16T04:24:51.152Z,99.99
2017-12-16T04:26:45.241Z,99.99
2017-12-16T04:27:45.172Z,99.99
2017-12-16T04:29:38.533Z,99.99
2017-12-16T04:30:38.437Z,99.99
2017-12-16T04:32:31.711Z,99.99
2017-12-16T04:33:31.620Z,99.99
2017-12-16T04:35:24.869Z,99.99
2017-12-16T04:36:24.796Z,99.99
2017-12-16T04:38:18.052Z,99.99
2017-12-16T04:39:17.969Z,99.99
2017-12-16T04:41:11.204Z,99.99
2017-12-16T04:42:11.127Z,99.99
2017-12-16T04:44:04.524Z,99.99
2017-12-16T04:45:04.431Z,99.99
2017-12-16T04:46:57.682Z,99.99
2017-12-16T04:47:57.608Z,99.99
2017-12-16T04:49:50.904Z,99.99
2017-12-16T04:50:50.806Z,99.99
2017-12-16T04:52:44.081Z,99.99
2017-12-16T04:53:43.991Z,99.99
2017-12-16T04:55:37.234Z,99.99
2017-12-16T04:56:37.158Z,99.99
2017-12-16T04:58:30.527Z,99.99
2017-12-16T04:59:30.433Z,99.99
2017-12-16T05:01:23.683Z,99.99
2017-12-16T05:02:23.611Z,99.99
2017-12-16T05:04:16.880Z,99.99
2017-12-16T05:05:16.789Z,99.99
2017-12-16T05:07:10.047Z,99.99
2017-12-16T05:08:09.970Z,99.99
2017-12-16T05:10:04.232Z,99.99
2017-12-16T05:11:04.140Z,99.99
2017-12-16T05:12:57.530Z,99.99
2017-12-16T05:13:57.435Z,99.99
2017-12-16T05:15:50.689Z,99.99
2017-12-16T05:16:50.614Z,99.99
2017-12-16T05:18:43.880Z,99.99
2017-12-16T05:19:43.783Z,99.99
2017-12-16T05:21:37.025Z,99.99
2017-12-16T05:22:36.950Z,99.99
2017-12-16T05:24:30.221Z,99.99
2017-12-16T05:25:30.129Z,99.99
2017-12-16T05:27:23.500Z,99.99
2017-12-16T05:28:23.429Z,99.99
2017-12-16T05:30:16.694Z,99.99
2017-12-16T05:31:16.606Z,99.99
2017-12-16T05:33:09.873Z,99.99
2017-12-16T05:34:09.782Z,99.99
2017-12-16T05:36:03.033Z,99.99
2017-12-16T05:37:02.960Z,99.99
2017-12-16T05:38:56.222Z,99.99
2017-12-16T05:39:56.126Z,99.99
2017-12-16T05:41:49.504Z,99.99
2017-12-16T05:42:49.431Z,99.99
2017-12-16T05:44:42.700Z,99.99
2017-12-16T05:45:42.606Z,99.99
2017-12-16T05:47:35.856Z,99.99
2017-12-16T05:48:35.789Z,99.99
2017-12-16T05:50:29.054Z,99.99
2017-12-16T05:51:28.964Z,99.99
2017-12-16T05:53:22.223Z,99.99
2017-12-16T05:54:22.130Z,99.99
2017-12-16T05:56:15.511Z,99.99
2017-12-16T05:57:15.436Z,99.99
2017-12-16T05:59:08.694Z,99.99
2017-12-16T06:00:08.607Z,99.99
2017-12-16T06:02:01.858Z,99.99
2017-12-16T06:03:01.786Z,99.99
2017-12-16T06:04:55.052Z,99.99
2017-12-16T06:05:54.961Z,99.99
2017-12-16T06:07:48.213Z,99.99
2017-12-16T06:08:48.140Z,99.99
2017-12-16T06:10:41.528Z,99.99
2017-12-16T06:11:41.434Z,99.99
2017-12-16T06:13:34.710Z,99.99
2017-12-16T06:14:34.618Z,99.99
2017-12-16T06:16:27.879Z,99.99
2017-12-16T06:17:27.805Z,99.99
2017-12-16T06:19:21.067Z,99.99
2017-12-16T06:20:20.975Z,99.99
2017-12-16T06:22:14.227Z,99.99
2017-12-16T06:23:14.152Z,99.99
2017-12-16T06:25:07.532Z,99.99
2017-12-16T06:26:07.439Z,99.99
2017-12-16T06:28:00.688Z,99.99
2017-12-16T06:29:00.615Z,99.99
2017-12-16T06:30:53.888Z,99.99
2017-12-16T06:31:53.796Z,99.99
2017-12-16T06:33:47.064Z,99.99
2017-12-16T06:34:46.976Z,99.99
2017-12-16T06:36:40.226Z,99.99
2017-12-16T06:37:40.151Z,99.99
2017-12-16T06:39:33.520Z,99.99
2017-12-16T06:40:33.430Z,99.99
2017-12-16T06:42:26.670Z,99.99
2017-12-16T06:43:26.596Z,99.99
2017-12-16T06:45:19.863Z,99.99
2017-12-16T06:46:19.773Z,99.99
2017-12-16T06:48:13.021Z,99.99
2017-12-16T06:49:12.949Z,99.99
2017-12-16T06:51:06.220Z,99.99
2017-12-16T06:52:06.128Z,99.99
2017-12-16T06:53:59.522Z,99.99
2017-12-16T06:54:59.431Z,99.99
2017-12-16T06:56:52.684Z,99.99
2017-12-16T06:57:52.631Z,99.99
2017-12-16T06:59:45.870Z,99.99
2017-12-16T07:00:45.778Z,99.99
2017-12-16T07:02:39.029Z,99.99
2017-12-16T07:03:38.955Z,99.99
2017-12-16T07:05:32.224Z,99.99
2017-12-16T07:06:32.136Z,99.99
2017-12-16T07:08:25.504Z,99.99
2017-12-16T07:09:25.431Z,99.99
2017-12-16T07:11:18.701Z,99.99
2017-12-16T07:12:18.608Z,99.99
2017-12-16T07:14:11.877Z,99.99
2017-12-16T07:15:11.784Z,99.99
2017-12-16T07:17:05.032Z,99.99
2017-12-16T07:18:04.959Z,99.99
2017-12-16T07:19:58.221Z,99.99
2017-12-16T07:20:58.131Z,99.99
2017-12-16T07:22:51.379Z,99.99
2017-12-16T07:23:51.309Z,99.99
2017-12-16T07:25:44.595Z,99.99
2017-12-16T07:26:44.490Z,99.99
2017-12-16T07:28:37.740Z,99.99
2017-12-16T07:29:37.665Z,99.99
2017-12-16T07:31:30.934Z,99.99
2017-12-16T07:32:30.842Z,99.99
2017-12-16T07:34:24.111Z,99.99
2017-12-16T07:35:24.018Z,99.99
2017-12-16T07:37:17.273Z,99.99
2017-12-16T07:38:17.200Z,99.99
2017-12-16T07:40:10.466Z,99.99
2017-12-16T07:41:10.370Z,99.99
2017-12-16T07:43:03.622Z,99.99
2017-12-16T07:44:03.547Z,99.99
2017-12-16T07:45:56.841Z,99.99
2017-12-16T07:46:56.724Z,99.99
2017-12-16T07:48:49.977Z,99.99
2017-12-16T07:49:49.902Z,99.99
2017-12-16T07:51:43.168Z,99.99
2017-12-16T07:52:43.127Z,99.99
2017-12-16T07:54:36.371Z,99.99
2017-12-16T07:55:36.261Z,99.99
2017-12-16T07:57:29.519Z,99.99
2017-12-16T07:58:29.448Z,99.99
2017-12-16T08:00:22.711Z,99.99
2017-12-16T08:01:22.625Z,99.99
2017-12-16T08:03:15.868Z,99.99
2017-12-16T08:04:15.790Z,99.99
2017-12-16T08:06:09.064Z,99.99
2017-12-16T08:07:08.971Z,99.99
2017-12-16T08:09:02.222Z,99.99
2017-12-16T08:10:02.146Z,99.99
2017-12-16T08:11:55.421Z,99.99
2017-12-16T08:12:55.325Z,99.99
2017-12-16T08:14:48.605Z,99.99
2017-12-16T08:15:48.505Z,99.99
2017-12-16T08:17:41.755Z,99.99
2017-12-16T08:18:41.681Z,99.99
2017-12-16T08:20:34.951Z,99.99
2017-12-16T08:21:34.861Z,99.99
2017-12-16T08:23:28.113Z,99.99
2017-12-16T08:24:28.038Z,99.99
2017-12-16T08:26:21.310Z,99.99
2017-12-16T08:27:21.217Z,99.99
2017-12-16T08:29:14.472Z,99.99
2017-12-16T08:30:14.399Z,99.99
2017-12-16T08:32:07.665Z,99.99
2017-12-16T08:33:07.572Z,99.99
2017-12-16T08:35:00.846Z,99.99
2017-12-16T08:36:00.751Z,99.99
2017-12-16T08:37:54.009Z,99.99
2017-12-16T08:38:53.928Z,99.10
2017-12-16T08:40:47.198Z,98.06
2017-12-16T08:41:47.109Z,98.11
2017-12-16T08:43:40.360Z,96.03
2017-12-16T08:44:40.289Z,94.98
2017-12-16T08:46:33.555Z,93.61
2017-12-16T08:47:33.467Z,92.47
2017-12-16T08:49:26.711Z,91.71
2017-12-16T08:50:26.637Z,91.61
2017-12-16T08:52:19.910Z,91.61
2017-12-16T08:53:19.850Z,91.42
2017-12-16T08:55:13.092Z,90.67
2017-12-16T08:56:13.003Z,91.80
2017-12-16T08:58:06.256Z,91.57
2017-12-16T08:59:06.185Z,92.28
2017-12-16T09:00:59.459Z,91.71
2017-12-16T09:01:59.397Z,91.05
2017-12-16T09:03:52.624Z,88.72
2017-12-16T09:04:52.553Z,87.91
2017-12-16T09:06:45.825Z,87.30
2017-12-16T09:07:45.737Z,87.20
2017-12-16T09:09:39.012Z,86.96
2017-12-16T09:10:38.924Z,87.01
2017-12-16T09:12:32.181Z,85.63
2017-12-16T09:13:32.110Z,85.72
2017-12-16T09:15:25.465Z,87.39
2017-12-16T09:16:25.316Z,87.58
2017-12-16T09:18:18.560Z,87.49
2017-12-16T09:19:18.486Z,88.29
2017-12-16T09:21:11.758Z,89.34
2017-12-16T09:22:11.658Z,88.53
2017-12-16T09:24:05.910Z,86.82
2017-12-16T09:25:05.839Z,86.77
2017-12-16T09:26:59.105Z,87.68
2017-12-16T09:27:59.019Z,87.20
2017-12-16T09:29:52.292Z,85.82
2017-12-16T09:30:52.202Z,85.06
2017-12-16T09:32:45.458Z,84.30
2017-12-16T09:33:45.379Z,83.54
2017-12-16T09:35:38.646Z,85.25
2017-12-16T09:36:38.562Z,85.35
2017-12-16T09:38:31.806Z,83.49
2017-12-16T09:39:31.736Z,83.01
2017-12-16T09:41:25.019Z,81.59
2017-12-16T09:42:24.933Z,80.45
2017-12-16T09:44:18.183Z,82.78
2017-12-16T09:45:18.111Z,84.55
2017-12-16T09:47:11.404Z,86.25
2017-12-16T09:48:11.311Z,86.91
2017-12-16T09:50:04.581Z,84.30
2017-12-16T09:51:04.495Z,83.68
2017-12-16T09:52:57.736Z,82.26
2017-12-16T09:53:57.673Z,81.97
2017-12-16T09:55:51.020Z,80.93
2017-12-16T09:56:50.920Z,81.59
2017-12-16T09:58:44.177Z,81.30
2017-12-16T09:59:44.097Z,81.40
2017-12-16T10:01:37.403Z,82.88
2017-12-16T10:02:37.314Z,83.92
2017-12-16T10:04:30.588Z,85.78
2017-12-16T10:05:30.496Z,86.44
2017-12-16T10:07:23.767Z,88.48
2017-12-16T10:08:23.679Z,89.53
2017-12-16T10:10:16.945Z,90.86
2017-12-16T10:11:16.860Z,91.52
2017-12-16T10:13:10.107Z,91.61
2017-12-16T10:14:10.036Z,90.48
2017-12-16T10:16:03.403Z,91.42
2017-12-16T10:17:03.314Z,91.05
2017-12-16T10:18:56.595Z,91.28
2017-12-16T10:19:56.523Z,92.42
2017-12-16T10:21:49.790Z,92.42
2017-12-16T10:22:49.700Z,93.08
2017-12-16T10:24:43.034Z,93.94
2017-12-16T10:25:42.938Z,94.32
2017-12-16T10:27:36.204Z,93.65
2017-12-16T10:28:36.115Z,93.08
2017-12-16T10:30:29.401Z,92.71
2017-12-16T10:31:29.308Z,93.37
2017-12-16T10:33:22.631Z,93.37
2017-12-16T10:34:22.495Z,93.27
2017-12-16T10:36:15.765Z,93.46
2017-12-16T10:37:15.683Z,93.27
2017-12-16T10:39:08.921Z,93.46
2017-12-16T10:40:08.875Z,93.56
2017-12-16T10:42:02.112Z,93.65
2017-12-16T10:43:02.019Z,92.90
2017-12-16T10:44:55.410Z,92.99
2017-12-16T10:45:55.373Z,92.71
2017-12-16T10:47:48.601Z,92.71
2017-12-16T10:48:48.514Z,92.42
2017-12-16T10:50:41.777Z,92.99
2017-12-16T10:51:41.677Z,92.90
2017-12-16T10:53:34.920Z,93.08
2017-12-16T10:54:34.850Z,93.46
2017-12-16T10:56:28.128Z,92.80
2017-12-16T10:57:28.035Z,92.38
2017-12-16T10:59:21.388Z,92.23
2017-12-16T11:00:21.315Z,92.90
2017-12-16T11:02:14.617Z,92.80
2017-12-16T11:03:14.509Z,93.08
2017-12-16T11:05:07.746Z,93.37
2017-12-16T11:06:07.718Z,92.47
2017-12-16T11:08:00.943Z,92.76
2017-12-16T11:09:00.856Z,91.71
2017-12-16T11:10:54.110Z,90.57
2017-12-16T11:11:54.026Z,90.19
2017-12-16T11:13:47.271Z,90.19
2017-12-16T11:14:47.198Z,90.38
2017-12-16T11:16:40.462Z,89.67
2017-12-16T11:17:40.372Z,89.48
2017-12-16T11:19:33.625Z,89.00
2017-12-16T11:20:33.546Z,89.58
2017-12-16T11:22:26.831Z,88.77
2017-12-16T11:23:26.742Z,89.62
2017-12-16T11:25:19.987Z,89.62
2017-12-16T11:26:19.959Z,89.62
2017-12-16T11:28:13.177Z,89.95
2017-12-16T11:29:13.089Z,89.39
2017-12-16T11:31:06.361Z,88.91
2017-12-16T11:32:06.291Z,89.10
2017-12-16T11:33:59.445Z,89.43
2017-12-16T11:34:59.050Z,88.87
2017-12-16T11:36:52.338Z,88.77
2017-12-16T11:37:52.245Z,88.91
2017-12-16T11:39:45.491Z,88.43
2017-12-16T11:40:45.453Z,87.87
2017-12-16T11:42:38.681Z,87.96
2017-12-16T11:43:38.595Z,88.10
2017-12-16T11:45:31.838Z,88.58
2017-12-16T11:46:31.767Z,88.29
2017-12-16T11:48:25.029Z,88.48
2017-12-16T11:49:24.938Z,88.29
2017-12-16T11:51:18.206Z,88.48
2017-12-16T11:52:18.112Z,89.06
2017-12-16T11:54:11.378Z,88.48
2017-12-16T11:55:11.312Z,88.68
2017-12-16T11:57:04.579Z,88.10
2017-12-16T11:58:04.485Z,88.48
2017-12-16T11:59:57.741Z,88.48
2017-12-16T12:00:57.677Z,88.24
2017-12-16T12:02:50.932Z,88.06
2017-12-16T12:03:50.843Z,87.30
2017-12-16T12:05:44.273Z,87.16
2017-12-16T12:06:44.206Z,87.35
2017-12-16T12:08:37.472Z,88.20
2017-12-16T12:09:37.377Z,89.06
2017-12-16T12:11:30.650Z,88.39
2017-12-16T12:12:30.560Z,89.06
2017-12-16T12:14:23.815Z,88.96
2017-12-16T12:15:23.745Z,88.87
2017-12-16T12:17:17.012Z,89.06
2017-12-16T12:18:16.913Z,88.87
2017-12-16T12:20:10.160Z,88.77
2017-12-16T12:21:10.088Z,88.96
2017-12-16T12:23:03.400Z,89.34
2017-12-16T12:24:03.310Z,88.77
2017-12-16T12:25:56.569Z,88.87
2017-12-16T12:26:56.521Z,88.77
2017-12-16T12:28:49.757Z,88.77
2017-12-16T12:29:49.662Z,88.77
2017-12-16T12:31:42.925Z,88.48
2017-12-16T12:32:42.838Z,88.48
2017-12-16T12:34:36.079Z,88.58
2017-12-16T12:35:36.007Z,88.39
2017-12-16T12:37:29.290Z,88.39
2017-12-16T12:38:29.201Z,88.39
2017-12-16T12:40:22.449Z,88.96
2017-12-16T12:41:22.380Z,89.15
2017-12-16T12:43:15.634Z,88.77
2017-12-16T12:44:15.546Z,88.48
2017-12-16T12:46:08.790Z,88.87
2017-12-16T12:47:08.719Z,89.34
2017-12-16T12:49:01.994Z,89.15
2017-12-16T12:50:01.934Z,88.96
2017-12-16T12:51:55.160Z,89.81
2017-12-16T12:52:55.071Z,90.38
2017-12-16T12:54:48.313Z,90.10
2017-12-16T12:55:48.243Z,89.53
2017-12-16T12:57:41.512Z,90.38
2017-12-16T12:58:41.416Z,90.38
2017-12-16T13:00:34.656Z,90.29
2017-12-16T13:01:34.586Z,90.86
2017-12-16T13:03:27.847Z,90.86
2017-12-16T13:04:27.759Z,90.19
2017-12-16T13:06:21.068Z,91.05
2017-12-16T13:07:20.930Z,90.29
2017-12-16T13:09:14.176Z,90.48
2017-12-16T13:10:14.102Z,90.38
2017-12-16T13:12:07.388Z,91.05
2017-12-16T13:13:07.299Z,90.38
2017-12-16T13:15:00.542Z,90.48
2017-12-16T13:16:00.471Z,90.29
2017-12-16T13:17:53.732Z,90.00
2017-12-16T13:18:53.651Z,89.72
2017-12-16T13:20:46.886Z,90.57
2017-12-16T13:21:46.811Z,90.95
2017-12-16T13:23:40.102Z,90.76
2017-12-16T13:24:39.998Z,90.38
2017-12-16T13:26:33.244Z,90.19
2017-12-16T13:27:33.154Z,90.57
2017-12-16T13:29:26.399Z,89.72
2017-12-16T13:30:26.331Z,89.81
2017-12-16T13:32:19.591Z,89.81
2017-12-16T13:33:19.499Z,89.72
2017-12-16T13:35:12.751Z,90.38
2017-12-16T13:36:12.679Z,90.38
2017-12-16T13:38:05.935Z,90.29
2017-12-16T13:39:05.850Z,90.57
2017-12-16T13:40:59.107Z,90.19
2017-12-16T13:41:59.038Z,90.57
2017-12-16T13:43:52.403Z,90.57
2017-12-16T13:44:52.319Z,89.91
2017-12-16T13:46:45.576Z,90.67
2017-12-16T13:47:45.481Z,90.48
2017-12-16T13:49:38.719Z,90.57
2017-12-16T13:50:38.653Z,90.67
2017-12-16T13:52:31.906Z,90.95
2017-12-16T13:53:31.815Z,90.86
2017-12-16T13:55:25.064Z,90.00
2017-12-16T13:56:24.990Z,90.57
2017-12-16T13:58:18.249Z,90.76
2017-12-16T13:59:18.161Z,90.38
2017-12-16T14:01:11.417Z,90.95
2017-12-16T14:02:11.345Z,91.14
2017-12-16T14:04:04.617Z,90.57
2017-12-16T14:05:04.529Z,91.52
2017-12-16T14:06:58.799Z,90.57
2017-12-16T14:07:58.713Z,90.67
2017-12-16T14:09:51.957Z,90.67
2017-12-16T14:10:51.884Z,90.76
2017-12-16T14:12:45.144Z,90.67
2017-12-16T14:13:45.054Z,90.76
2017-12-16T14:15:38.381Z,91.42
2017-12-16T14:16:38.311Z,90.57
2017-12-16T14:18:31.076Z,90.76
2017-12-16T14:19:30.988Z,90.76
2017-12-16T14:21:24.234Z,90.48
2017-12-16T14:22:24.161Z,90.95
2017-12-16T14:24:17.428Z,90.19
2017-12-16T14:25:17.332Z,90.86
2017-12-16T14:27:10.592Z,90.19
2017-12-16T14:28:10.505Z,90.10
2017-12-16T14:30:03.747Z,90.57
2017-12-16T14:31:03.676Z,90.48
2017-12-16T14:32:56.944Z,90.38
2017-12-16T14:33:56.850Z,90.10
2017-12-16T14:35:50.092Z,90.38
2017-12-16T14:36:50.018Z,90.19
2017-12-16T14:38:43.281Z,89.15
2017-12-16T14:39:43.190Z,90.19
2017-12-16T14:41:36.440Z,89.81
2017-12-16T14:42:36.364Z,89.34
2017-12-16T14:44:29.633Z,89.62
2017-12-16T14:45:29.567Z,89.72
2017-12-16T14:47:22.803Z,89.72
2017-12-16T14:48:22.715Z,90.38
2017-12-16T14:50:15.954Z,90.38
2017-12-16T14:51:15.886Z,90.48
2017-12-16T14:53:09.148Z,89.62
2017-12-16T14:54:09.058Z,89.62
2017-12-16T14:56:02.391Z,90.48
2017-12-16T14:57:02.308Z,90.29
2017-12-16T14:58:55.577Z,90.19
2017-12-16T14:59:55.487Z,90.38
2017-12-16T15:01:48.727Z,90.29
2017-12-16T15:02:48.656Z,90.29
2017-12-16T15:04:41.922Z,91.61
2017-12-16T15:05:41.832Z,91.42
2017-12-16T15:07:35.090Z,91.61
2017-12-16T15:08:34.998Z,91.42
2017-12-16T15:10:28.258Z,91.42
2017-12-16T15:11:28.185Z,91.14
2017-12-16T15:13:21.451Z,91.61
2017-12-16T15:14:21.359Z,92.09
2017-12-16T15:16:14.600Z,91.99
2017-12-16T15:17:14.531Z,91.24
2017-12-16T15:19:07.792Z,91.61
2017-12-16T15:20:07.701Z,91.24
2017-12-16T15:22:00.480Z,91.61
2017-12-16T15:23:00.396Z,91.24
2017-12-16T15:24:53.659Z,91.24
2017-12-16T15:25:53.570Z,91.05
2017-12-16T15:27:46.838Z,91.24
2017-12-16T15:28:46.742Z,90.67
2017-12-16T15:30:39.997Z,90.38
2017-12-16T15:31:39.927Z,90.38
2017-12-16T15:33:33.190Z,89.53
2017-12-16T15:34:33.097Z,89.53
2017-12-16T15:36:26.379Z,90.10
2017-12-16T15:37:26.306Z,89.91
2017-12-16T15:39:19.573Z,90.00
2017-12-16T15:40:19.482Z,90.57
2017-12-16T15:42:12.723Z,90.57
2017-12-16T15:43:12.651Z,90.95
2017-12-16T15:45:05.917Z,90.95
2017-12-16T15:46:05.826Z,90.86
2017-12-16T15:47:59.099Z,91.42
2017-12-16T15:48:59.009Z,91.42
2017-12-16T15:50:52.262Z,90.67
2017-12-16T15:51:52.190Z,90.57
2017-12-16T15:53:45.451Z,90.86
2017-12-16T15:54:45.361Z,90.86
2017-12-16T15:56:38.615Z,91.05
2017-12-16T15:57:38.546Z,90.57
2017-12-16T15:59:31.802Z,90.95
2017-12-16T16:00:31.715Z,90.76
2017-12-16T16:02:25.000Z,90.95
2017-12-16T16:03:24.885Z,90.76
2017-12-16T16:05:18.139Z,91.05
2017-12-16T16:06:18.068Z,90.29
2017-12-16T16:08:11.335Z,91.33
2017-12-16T16:09:11.240Z,91.05
2017-12-16T16:11:04.485Z,90.76
2017-12-16T16:12:04.413Z,91.05
2017-12-16T16:13:57.678Z,90.38
2017-12-16T16:14:57.581Z,90.10
2017-12-16T16:16:50.830Z,90.62
2017-12-16T16:17:50.752Z,90.48
2017-12-16T16:19:44.016Z,90.10
2017-12-16T16:20:43.925Z,90.24
2017-12-16T16:22:37.186Z,91.14
2017-12-16T16:23:37.099Z,90.76
2017-12-16T16:25:30.338Z,90.95
2017-12-16T16:26:30.267Z,90.67
2017-12-16T16:28:23.530Z,91.28
2017-12-16T16:29:23.440Z,91.47
2017-12-16T16:31:16.680Z,91.85
2017-12-16T16:32:16.615Z,92.42
2017-12-16T16:34:09.871Z,92.90
2017-12-16T16:35:09.783Z,93.37
2017-12-16T16:37:03.047Z,92.52
2017-12-16T16:38:02.970Z,92.61
2017-12-16T16:39:56.243Z,92.61
2017-12-16T16:40:56.147Z,92.23
2017-12-16T16:42:49.534Z,92.61
2017-12-16T16:43:49.436Z,92.52
2017-12-16T16:45:42.694Z,92.99
2017-12-16T16:46:42.617Z,93.18
2017-12-16T16:48:35.894Z,93.37
2017-12-16T16:49:35.800Z,93.27
2017-12-16T16:51:29.053Z,93.08
2017-12-16T16:52:28.981Z,93.56
2017-12-16T16:54:22.251Z,93.46
2017-12-16T16:55:22.158Z,93.46
2017-12-16T16:57:15.504Z,94.13
2017-12-16T16:58:15.432Z,94.13
2017-12-16T17:00:08.699Z,94.04
2017-12-16T17:01:08.605Z,94.70
2017-12-16T17:03:01.875Z,94.42
2017-12-16T17:04:01.787Z,94.70
2017-12-16T17:05:55.039Z,94.51
2017-12-16T17:06:54.966Z,94.42
2017-12-16T17:08:48.238Z,93.94
2017-12-16T17:09:48.148Z,94.23
2017-12-16T17:11:41.511Z,94.60
2017-12-16T17:12:41.437Z,94.65
2017-12-16T17:14:34.708Z,94.84
2017-12-16T17:15:34.617Z,94.70
2017-12-16T17:17:27.869Z,94.74
2017-12-16T17:18:27.844Z,95.03
2017-12-16T17:20:21.068Z,95.12
2017-12-16T17:21:20.975Z,95.03
2017-12-16T17:23:14.245Z,94.56
2017-12-16T17:24:14.154Z,94.74
2017-12-16T17:26:07.502Z,94.74
2017-12-16T17:27:07.431Z,94.56
2017-12-16T17:29:00.706Z,94.84
2017-12-16T17:30:00.617Z,94.27
2017-12-16T17:31:53.866Z,94.65
2017-12-16T17:32:53.794Z,94.65
2017-12-16T17:34:47.064Z,94.08
2017-12-16T17:35:46.977Z,94.37
2017-12-16T17:37:40.225Z,94.37
2017-12-16T17:38:40.155Z,94.37
2017-12-16T17:40:33.527Z,94.08
2017-12-16T17:41:33.436Z,94.89
2017-12-16T17:43:26.706Z,94.27
2017-12-16T17:44:26.614Z,93.84
2017-12-16T17:46:19.870Z,94.32
2017-12-16T17:47:19.794Z,94.60
2017-12-16T17:49:13.056Z,93.94
2017-12-16T17:50:12.966Z,93.94
2017-12-16T17:52:06.222Z,94.32
2017-12-16T17:53:06.147Z,94.42
2017-12-16T17:54:59.534Z,93.94
2017-12-16T17:55:59.444Z,94.42
2017-12-16T17:57:52.693Z,94.04
2017-12-16T17:58:52.622Z,94.65
2017-12-16T18:00:45.892Z,94.89
2017-12-16T18:01:45.802Z,95.26
2017-12-16T18:03:39.070Z,95.26
2017-12-16T18:04:38.981Z,95.07
2017-12-16T18:06:32.235Z,95.31
2017-12-16T18:07:32.168Z,95.07
2017-12-16T18:09:25.530Z,95.03
2017-12-16T18:10:25.443Z,94.93
2017-12-16T18:12:18.690Z,95.03
2017-12-16T18:13:18.618Z,94.98
2017-12-16T18:15:11.890Z,94.89
2017-12-16T18:16:11.798Z,95.17
2017-12-16T18:18:05.056Z,94.79
2017-12-16T18:19:04.978Z,94.60
2017-12-16T18:20:58.253Z,95.36
2017-12-16T18:21:58.160Z,95.17
2017-12-16T18:23:51.526Z,95.45
2017-12-16T18:24:51.437Z,94.98
2017-12-16T18:26:44.687Z,95.36
2017-12-16T18:27:44.616Z,95.31
2017-12-16T18:29:37.881Z,95.22
2017-12-16T18:30:37.790Z,96.26
2017-12-16T18:32:31.041Z,95.74
2017-12-16T18:33:30.970Z,95.50
2017-12-16T18:35:24.252Z,95.50